Lily, Kentucky
Current Conditions -  °F | °C
As of 12:53 PM on Wednesday 28 Jan 2015 (Local Time) from KLOZ Reporting Station
Clear Clear  
Wind Chill: 30°   Ceiling: Unl
Heat Index: 34°   Visibility: 10mi
Dew Point: 15°   Wind: 5mph
Humidity: 46%   Direction: 80°E
Pressure: 30.32"   Gusts: NA
Location:  37.02°N, 84.08°W
Report Text: KLOZ 281753Z AUTO 08004KT 10SM CLR 01/M09 A3032 RMK AO2 SLP277 T00111094 10011 21078 58013
Loading
Personal Weather Stations






























Interactive Weather Map New forecast layout! Learn more

10-Day Weather Forecast

Advertisements
Track Severe Weather on mobile